Fort Worth - NOAA's Hourly Summary for Saturday, May 5, 2018
Hour Temp
(f)
RH
(%)
Solar Rad.
(MJ/m2)
Rainfall
(in)
Wind
(mph)
5/5/2018 12:00 AM 63 91 0 0 2.32
5/5/2018 1:00 AM 63 92 0 0 2.59
5/5/2018 2:00 AM 62 93 0 0 3.16
5/5/2018 3:00 AM 61 93 0 0 2.54
5/5/2018 4:00 AM 60 93 0 0 3.2
5/5/2018 5:00 AM 59 93 0 0 3.37
5/5/2018 6:00 AM 60 91 0.01 0 4.46
5/5/2018 7:00 AM 61 86 0.33 0 6.8
5/5/2018 8:00 AM 64 79 0.98 0 6.49
5/5/2018 9:00 AM 69 66 1.71 0 9.54
5/5/2018 10:00 AM 72 60 2.36 0 7.92
5/5/2018 11:00 AM 75 49 2.88 0 9.77
5/5/2018 12:00 PM 77 41 3.2 0 9.92
5/5/2018 1:00 PM 78 40 3.34 0 9.42
5/5/2018 2:00 PM 79 34 3.28 0 12.18
5/5/2018 3:00 PM 80 33 3.01 0 9.96
5/5/2018 4:00 PM 80 32 2.53 0 8.32
5/5/2018 5:00 PM 80 32 1.89 0 8.12
5/5/2018 6:00 PM 80 30 1.16 0 7.22
5/5/2018 7:00 PM 78 30 0.13 0 4.72
5/5/2018 8:00 PM 76 35 0.03 0 3.36
5/5/2018 9:00 PM 73 39 0 0 2.13
5/5/2018 10:00 PM 72 41 0 0 1.62
5/5/2018 11:00 PM 69 48 0 0 0.45
Data Summary 70 59 26.84 0.00 5.82